NZOH/OHA METAR and TAF weather

Enter ICAO airport designator
Station Type Date Time Source
NZOH METAR 2018/12/07 23:00 UTC NOAA

NZOH 072300Z 26004KT 150V050 25KM SCT045 20/15 Q1021 NOSIG


Station Type Date Time Source
NZOH Decoded METAR 2018/12/07 23:00 UTC NOAA

Ohakea, New Zealand (NZOH) 40-12S 175-22E 52M
Dec 07, 2018 - 06:00 PM EST / 2018.12.07 2300 UTC
Wind: from the W (260 degrees) at 5 MPH (4 KT) (direction variable):0
Sky conditions: partly cloudy
Temperature: 68 F (20 C)
Dew Point: 59 F (15 C)
Relative Humidity: 72%
Pressure (altimeter): 30.15 in. Hg (1021 hPa)
ob: NZOH 072300Z 26004KT 150V050 25KM SCT045 20/15 Q1021 NOSIG
cycle: 23

Station Type Date Time Source
NZOH TAF 2007/12/14 04:59 UTC NOAA

TAF NZOH 140459Z 140606 11020KT 30KM SCT080 BECMH 0911 03008KT
BECMG 2224 27012KT


Example: see airport list